createdAt,value
2018-06-21T00:01:59.405Z,8.40
2018-06-21T00:04:27.699Z,8.77
2018-06-21T00:06:56.027Z,9.10
2018-06-21T00:09:24.254Z,8.80
2018-06-21T00:11:52.558Z,8.83
2018-06-21T00:14:20.843Z,9.30
2018-06-21T00:16:49.150Z,9.23
2018-06-21T00:19:17.442Z,9.20
2018-06-21T00:21:45.719Z,9.90
2018-06-21T00:24:13.998Z,9.60
2018-06-21T00:26:42.274Z,9.90
2018-06-21T00:29:10.589Z,10.33
2018-06-21T00:31:38.914Z,10.07
2018-06-21T00:34:07.170Z,10.73
2018-06-21T00:36:35.562Z,10.13
2018-06-21T00:39:03.879Z,11.30
2018-06-21T00:41:32.136Z,11.80
2018-06-21T00:44:00.409Z,11.17
2018-06-21T00:46:28.699Z,11.03
2018-06-21T00:48:56.994Z,11.10
2018-06-21T00:51:25.266Z,10.17
2018-06-21T00:53:53.624Z,11.50
2018-06-21T00:56:21.846Z,11.13
2018-06-21T00:58:50.256Z,12.10
2018-06-21T01:01:19.011Z,12.37
2018-06-21T01:03:47.814Z,12.17
2018-06-21T01:06:16.537Z,12.00
2018-06-21T01:08:44.997Z,12.60
2018-06-21T01:11:13.218Z,13.40
2018-06-21T01:13:41.506Z,14.83
2018-06-21T01:16:09.808Z,15.37
2018-06-21T01:18:38.112Z,15.10
2018-06-21T01:21:06.408Z,17.37
2018-06-21T01:23:34.611Z,16.17
2018-06-21T01:26:02.842Z,15.60
2018-06-21T01:28:31.150Z,16.87
2018-06-21T01:30:59.420Z,16.50
2018-06-21T01:33:27.728Z,17.47
2018-06-21T01:35:55.998Z,17.07
2018-06-21T01:38:24.342Z,16.80
2018-06-21T01:40:52.571Z,17.53
2018-06-21T01:43:20.887Z,15.93
2018-06-21T01:45:49.195Z,16.63
2018-06-21T01:48:17.447Z,16.83
2018-06-21T01:50:45.820Z,16.97
2018-06-21T01:53:14.013Z,16.53
2018-06-21T01:55:42.216Z,17.87
2018-06-21T01:58:10.510Z,17.60
2018-06-21T02:00:38.783Z,18.60
2018-06-21T02:03:07.085Z,16.23
2018-06-21T02:05:35.354Z,16.00
2018-06-21T02:08:03.682Z,17.10
2018-06-21T02:10:31.950Z,17.20
2018-06-21T02:13:00.222Z,16.60
2018-06-21T02:15:28.443Z,13.70
2018-06-21T02:17:56.709Z,14.50
2018-06-21T02:20:24.991Z,11.60
2018-06-21T02:22:53.182Z,11.03
2018-06-21T02:25:21.507Z,11.30
2018-06-21T02:27:49.776Z,11.63
2018-06-21T02:30:18.047Z,12.00
2018-06-21T02:32:46.353Z,11.33
2018-06-21T02:35:14.631Z,11.20
2018-06-21T02:37:42.923Z,10.27
2018-06-21T02:40:11.227Z,11.97
2018-06-21T02:42:39.535Z,11.53
2018-06-21T02:45:07.802Z,12.17
2018-06-21T02:47:36.085Z,13.13
2018-06-21T02:50:04.607Z,14.00
2018-06-21T02:52:32.854Z,13.60
2018-06-21T02:55:01.166Z,13.60
2018-06-21T02:57:29.467Z,15.23
2018-06-21T02:59:57.715Z,15.90
2018-06-21T03:02:26.083Z,16.03
2018-06-21T03:04:54.308Z,15.57
2018-06-21T03:07:22.631Z,15.00
2018-06-21T03:09:50.915Z,16.00
2018-06-21T03:12:22.642Z,17.90
2018-06-21T03:14:51.746Z,20.10
2018-06-21T03:17:20.066Z,18.97
2018-06-21T03:19:48.368Z,20.43
2018-06-21T03:22:16.639Z,20.10
2018-06-21T03:24:44.911Z,20.30
2018-06-21T03:27:13.248Z,21.30
2018-06-21T03:29:41.526Z,20.30
2018-06-21T03:32:10.163Z,20.67
2018-06-21T03:34:38.766Z,21.57
2018-06-21T03:37:07.006Z,19.67
2018-06-21T03:39:35.274Z,18.70
2018-06-21T03:42:03.660Z,20.50
2018-06-21T03:44:31.950Z,21.70
2018-06-21T03:47:00.244Z,20.07
2018-06-21T03:49:28.535Z,20.70
2018-06-21T03:51:56.895Z,19.50
2018-06-21T03:54:25.230Z,20.10
2018-06-21T03:56:53.506Z,16.97
2018-06-21T03:59:21.803Z,18.03
2018-06-21T04:01:50.099Z,17.93
2018-06-21T04:04:18.454Z,17.43
2018-06-21T04:06:46.771Z,16.80
2018-06-21T04:09:15.031Z,15.23
2018-06-21T04:11:43.352Z,14.13
2018-06-21T04:14:11.631Z,14.20
2018-06-21T04:16:39.914Z,12.90
2018-06-21T04:19:08.194Z,12.87
2018-06-21T04:21:36.479Z,13.30
2018-06-21T04:24:04.816Z,13.30
2018-06-21T04:26:33.090Z,12.57
2018-06-21T04:29:01.494Z,13.63
2018-06-21T04:31:29.763Z,12.63
2018-06-21T04:33:58.023Z,12.73
2018-06-21T04:36:26.372Z,13.57
2018-06-21T04:38:54.602Z,14.13
2018-06-21T04:41:22.955Z,15.50
2018-06-21T04:43:51.249Z,17.03
2018-06-21T04:46:19.511Z,16.27
2018-06-21T04:48:47.777Z,19.17
2018-06-21T04:51:16.051Z,16.00
2018-06-21T04:53:44.435Z,17.30
2018-06-21T04:56:12.732Z,17.83
2018-06-21T04:58:41.032Z,16.80
2018-06-21T05:01:09.332Z,16.57
2018-06-21T05:03:37.595Z,16.60
2018-06-21T05:06:05.911Z,17.90
2018-06-21T05:08:34.200Z,15.93
2018-06-21T05:11:02.474Z,16.70
2018-06-21T05:13:30.742Z,16.90
2018-06-21T05:15:58.934Z,15.30
2018-06-21T05:18:27.151Z,16.57
2018-06-21T05:20:55.437Z,18.50
2018-06-21T05:23:23.710Z,15.50
2018-06-21T05:25:52.011Z,18.33
2018-06-21T05:28:20.347Z,17.63
2018-06-21T05:30:48.590Z,17.63
2018-06-21T05:33:16.898Z,16.50
2018-06-21T05:35:45.179Z,17.73
2018-06-21T05:38:13.431Z,17.13
2018-06-21T05:40:41.718Z,17.00
2018-06-21T05:43:09.938Z,16.20
2018-06-21T05:45:38.150Z,16.80
2018-06-21T05:48:06.415Z,16.67
2018-06-21T05:50:35.256Z,16.67
2018-06-21T05:53:03.667Z,16.60
2018-06-21T05:55:32.987Z,16.70
2018-06-21T05:58:01.588Z,17.27
2018-06-21T06:00:30.162Z,16.00
2018-06-21T06:02:58.378Z,16.30
2018-06-21T06:05:26.592Z,16.37
2018-06-21T06:07:54.824Z,15.47
2018-06-21T06:10:23.335Z,14.73
2018-06-21T06:12:51.523Z,14.63
2018-06-21T06:15:19.714Z,12.80
2018-06-21T06:17:47.950Z,14.40
2018-06-21T06:20:16.277Z,11.23
2018-06-21T06:22:44.474Z,12.10
2018-06-21T06:25:12.692Z,10.23
2018-06-21T06:27:40.891Z,9.63
2018-06-21T06:30:09.254Z,10.43
2018-06-21T06:32:37.552Z,10.10
2018-06-21T06:35:05.810Z,9.70
2018-06-21T06:37:34.006Z,9.67
2018-06-21T06:40:02.210Z,10.23
2018-06-21T06:42:30.495Z,9.53
2018-06-21T06:44:58.742Z,9.70
2018-06-21T06:47:27.661Z,9.17
2018-06-21T06:49:55.919Z,8.87
2018-06-21T06:52:24.129Z,9.17
2018-06-21T06:54:52.323Z,7.60
2018-06-21T06:57:20.517Z,7.57
2018-06-21T06:59:48.735Z,6.67
2018-06-21T07:02:16.942Z,6.90
2018-06-21T07:04:45.151Z,7.47
2018-06-21T07:07:13.354Z,6.17
2018-06-21T07:09:41.542Z,7.40
2018-06-21T07:12:09.791Z,6.47
2018-06-21T07:14:38.001Z,7.57
2018-06-21T07:17:06.219Z,7.17
2018-06-21T07:19:34.422Z,7.13
2018-06-21T07:22:02.621Z,6.60
2018-06-21T07:24:30.827Z,6.33
2018-06-21T07:26:59.145Z,6.10
2018-06-21T07:29:27.326Z,6.60
2018-06-21T07:31:55.534Z,7.30
2018-06-21T07:34:23.735Z,6.60
2018-06-21T07:36:52.041Z,6.63
2018-06-21T07:39:20.233Z,6.40
2018-06-21T07:41:48.430Z,7.03
2018-06-21T07:44:16.639Z,6.90
2018-06-21T07:46:44.824Z,6.50
2018-06-21T07:49:13.042Z,6.57
2018-06-21T07:51:41.260Z,7.20
2018-06-21T07:54:09.453Z,6.50
2018-06-21T07:56:37.650Z,5.30
2018-06-21T07:59:05.918Z,7.80
2018-06-21T08:01:34.079Z,5.63
2018-06-21T08:04:02.274Z,6.07
2018-06-21T08:06:30.467Z,5.87
2018-06-21T08:08:58.680Z,6.00
2018-06-21T08:11:26.887Z,6.43
2018-06-21T08:13:55.196Z,6.60
2018-06-21T08:16:23.379Z,6.27
2018-06-21T08:18:51.603Z,6.70
2018-06-21T08:21:19.823Z,6.40
2018-06-21T08:23:48.015Z,7.80
2018-06-21T08:26:16.218Z,6.80
2018-06-21T08:28:44.414Z,7.20
2018-06-21T08:31:12.621Z,6.67
2018-06-21T08:33:40.806Z,7.80
2018-06-21T08:36:08.994Z,7.33
2018-06-21T08:38:37.239Z,7.67
2018-06-21T08:41:05.559Z,8.43
2018-06-21T08:43:33.747Z,7.50
2018-06-21T08:46:01.980Z,8.00
2018-06-21T08:48:30.167Z,7.27
2018-06-21T08:50:58.388Z,8.13
2018-06-21T08:53:26.635Z,8.27
2018-06-21T08:55:54.909Z,8.20
2018-06-21T08:58:23.114Z,7.23
2018-06-21T09:00:51.486Z,7.37
2018-06-21T09:03:19.735Z,7.00
2018-06-21T09:05:47.928Z,7.40
2018-06-21T09:08:16.163Z,7.13
2018-06-21T09:10:44.375Z,7.27
2018-06-21T09:13:12.584Z,6.90
2018-06-21T09:15:40.787Z,8.33
2018-06-21T09:18:09.015Z,8.67
2018-06-21T09:20:37.203Z,8.23
2018-06-21T09:23:05.441Z,7.93
2018-06-21T09:25:33.628Z,8.20
2018-06-21T09:28:01.822Z,7.30
2018-06-21T09:30:30.031Z,8.50
2018-06-21T09:32:58.230Z,8.47
2018-06-21T09:35:26.424Z,7.57
2018-06-21T09:37:59.823Z,8.90
2018-06-21T09:40:33.286Z,8.77
2018-06-21T09:43:06.895Z,9.50
2018-06-21T09:45:40.390Z,9.07
2018-06-21T09:48:13.843Z,9.10
2018-06-21T09:50:42.123Z,8.23
2018-06-21T09:53:10.325Z,8.67
2018-06-21T09:55:38.530Z,8.33
2018-06-21T09:58:06.782Z,8.80
2018-06-21T10:00:40.283Z,8.20
2018-06-21T10:03:08.474Z,8.70
2018-06-21T10:05:36.667Z,8.50
2018-06-21T10:08:04.886Z,8.33
2018-06-21T10:10:33.100Z,9.10
2018-06-21T10:13:01.328Z,9.10
2018-06-21T10:15:29.531Z,9.00
2018-06-21T10:17:59.459Z,8.73
2018-06-21T10:20:27.960Z,9.77
2018-06-21T10:22:56.143Z,9.10
2018-06-21T10:25:24.843Z,8.60
2018-06-21T10:27:53.062Z,10.53
2018-06-21T10:30:21.608Z,8.87
2018-06-21T10:32:49.862Z,9.10
2018-06-21T10:35:18.062Z,8.67
2018-06-21T10:37:46.272Z,8.90
2018-06-21T10:40:14.468Z,8.03
2018-06-21T10:42:42.672Z,8.00
2018-06-21T10:45:10.927Z,9.13
2018-06-21T10:47:39.099Z,9.20
2018-06-21T10:50:07.338Z,7.90
2018-06-21T10:52:35.518Z,9.90
2018-06-21T10:55:03.777Z,9.03
2018-06-21T10:57:32.126Z,8.70
2018-06-21T11:00:00.457Z,8.70
2018-06-21T11:02:28.654Z,8.60
2018-06-21T11:04:56.862Z,8.50
2018-06-21T11:07:25.100Z,8.63
2018-06-21T11:09:53.290Z,8.33
2018-06-21T11:12:21.477Z,7.77
2018-06-21T11:14:49.709Z,9.87
2018-06-21T11:17:17.902Z,8.73
2018-06-21T11:19:46.106Z,8.90
2018-06-21T11:22:14.312Z,8.30
2018-06-21T11:24:42.510Z,9.40
2018-06-21T11:27:10.701Z,8.60
2018-06-21T11:29:38.949Z,8.67
2018-06-21T11:32:07.213Z,8.10
2018-06-21T11:34:35.398Z,8.50
2018-06-21T11:37:03.582Z,8.77
2018-06-21T11:39:31.818Z,8.50
2018-06-21T11:42:00.019Z,8.93
2018-06-21T11:44:28.228Z,8.97
2018-06-21T11:46:56.455Z,7.53
2018-06-21T11:49:24.652Z,8.07
2018-06-21T11:51:52.871Z,8.90
2018-06-21T11:54:21.078Z,8.10
2018-06-21T11:56:49.595Z,8.73
2018-06-21T11:59:17.828Z,8.23
2018-06-21T12:01:46.116Z,8.30
2018-06-21T12:04:14.267Z,8.07
2018-06-21T12:06:42.494Z,8.00
2018-06-21T12:09:11.534Z,7.43
2018-06-21T12:11:39.863Z,8.17
2018-06-21T12:14:08.246Z,7.90
2018-06-21T12:16:36.659Z,7.10
2018-06-21T12:19:05.121Z,7.30
2018-06-21T12:21:34.117Z,7.53
2018-06-21T12:24:02.325Z,6.80
2018-06-21T12:26:30.551Z,6.97
2018-06-21T12:28:58.763Z,7.50
2018-06-21T12:31:26.951Z,8.87
2018-06-21T12:33:55.243Z,7.80
2018-06-21T12:36:23.460Z,8.60
2018-06-21T12:38:51.654Z,8.03
2018-06-21T12:41:19.862Z,8.10
2018-06-21T12:43:48.076Z,8.50
2018-06-21T12:46:16.371Z,8.47
2018-06-21T12:48:44.559Z,8.67
2018-06-21T12:51:12.803Z,8.13
2018-06-21T12:53:41.143Z,9.40
2018-06-21T12:56:09.341Z,8.57
2018-06-21T12:58:37.555Z,7.53
2018-06-21T13:01:05.844Z,7.97
2018-06-21T13:03:34.051Z,7.60
2018-06-21T13:06:02.320Z,7.77
2018-06-21T13:08:41.935Z,7.20
2018-06-21T13:12:20.401Z,7.37
2018-06-21T13:14:48.635Z,6.60
2018-06-21T13:17:16.827Z,5.90
2018-06-21T13:19:45.032Z,6.10
2018-06-21T13:22:13.269Z,6.40
2018-06-21T13:24:41.492Z,6.70
2018-06-21T13:27:09.696Z,6.50
2018-06-21T13:29:39.021Z,6.63
2018-06-21T13:32:07.252Z,6.83
2018-06-21T13:34:35.506Z,6.70
2018-06-21T13:37:03.842Z,5.93
2018-06-21T13:39:32.019Z,5.80
2018-06-21T13:42:00.227Z,6.00
2018-06-21T13:44:29.882Z,5.03
2018-06-21T13:46:58.105Z,6.20
2018-06-21T13:49:26.306Z,5.23
2018-06-21T13:51:54.510Z,6.40
2018-06-21T13:54:22.702Z,5.20
2018-06-21T13:56:50.926Z,5.80
2018-06-21T13:59:19.675Z,6.53
2018-06-21T14:01:48.323Z,5.27
2018-06-21T14:04:16.522Z,5.50
2018-06-21T14:06:44.789Z,5.30
2018-06-21T14:09:13.383Z,5.13
2018-06-21T14:11:42.389Z,5.80
2018-06-21T14:14:10.794Z,6.60
2018-06-21T14:16:38.990Z,6.07
2018-06-21T14:19:07.488Z,6.80
2018-06-21T14:21:35.843Z,6.20
2018-06-21T14:24:08.506Z,6.70
2018-06-21T14:26:37.273Z,7.70
2018-06-21T14:29:05.762Z,7.60
2018-06-21T14:31:33.963Z,6.47
2018-06-21T14:34:02.183Z,6.10
2018-06-21T14:36:30.794Z,7.23
2018-06-21T14:38:59.599Z,6.73
2018-06-21T14:41:27.790Z,6.50
2018-06-21T14:43:56.013Z,6.77
2018-06-21T14:46:24.214Z,6.50
2018-06-21T14:48:52.477Z,6.33
2018-06-21T14:51:20.590Z,6.60
2018-06-21T14:53:48.883Z,6.40
2018-06-21T14:56:17.046Z,6.50
2018-06-21T14:58:45.608Z,6.70
2018-06-21T15:01:13.799Z,6.10
2018-06-21T15:03:42.024Z,6.50
2018-06-21T15:06:10.225Z,6.37
2018-06-21T15:08:38.431Z,6.63
2018-06-21T15:11:06.754Z,7.00
2018-06-21T15:13:34.946Z,5.80
2018-06-21T15:16:03.147Z,6.50
2018-06-21T15:18:31.471Z,5.83
2018-06-21T15:20:59.711Z,6.23
2018-06-21T15:23:27.911Z,6.20
2018-06-21T15:25:56.135Z,5.60
2018-06-21T15:28:24.335Z,6.30
2018-06-21T15:30:52.583Z,5.87
2018-06-21T15:33:20.791Z,6.13
2018-06-21T15:35:48.986Z,6.03
2018-06-21T15:38:17.731Z,6.40
2018-06-21T15:40:45.916Z,6.03
2018-06-21T15:43:14.114Z,6.73
2018-06-21T15:45:42.399Z,6.17
2018-06-21T15:48:10.604Z,5.83
2018-06-21T15:50:38.822Z,5.90
2018-06-21T15:53:07.035Z,6.53
2018-06-21T15:55:35.226Z,6.37
2018-06-21T15:58:03.451Z,6.00
2018-06-21T16:00:31.698Z,6.50
2018-06-21T16:02:59.933Z,5.60
2018-06-21T16:05:28.107Z,6.10
2018-06-21T16:07:56.294Z,6.10
2018-06-21T16:10:24.519Z,5.80
2018-06-21T16:12:52.719Z,6.57
2018-06-21T16:15:20.949Z,6.00
2018-06-21T16:17:49.131Z,6.83
2018-06-21T16:20:17.414Z,5.93
2018-06-21T16:22:45.645Z,5.73
2018-06-21T16:25:13.971Z,7.27
2018-06-21T16:27:42.216Z,6.30
2018-06-21T16:30:10.461Z,6.47
2018-06-21T16:32:38.675Z,6.77
2018-06-21T16:35:06.966Z,6.37
2018-06-21T16:37:35.167Z,7.70
2018-06-21T16:40:03.476Z,6.67
2018-06-21T16:42:31.714Z,6.20
2018-06-21T16:45:00.002Z,6.67
2018-06-21T16:47:28.354Z,6.83
2018-06-21T16:49:56.570Z,7.67
2018-06-21T16:52:24.788Z,7.50
2018-06-21T16:54:53.087Z,7.37
2018-06-21T16:57:21.423Z,7.20
2018-06-21T16:59:49.679Z,7.70
2018-06-21T17:02:17.990Z,7.93
2018-06-21T17:04:46.239Z,6.60
2018-06-21T17:07:14.577Z,7.67
2018-06-21T17:09:42.789Z,8.50
2018-06-21T17:12:11.034Z,8.63
2018-06-21T17:14:39.271Z,9.33
2018-06-21T17:17:07.617Z,9.70
2018-06-21T17:19:35.870Z,8.90
2018-06-21T17:22:04.147Z,8.70
2018-06-21T17:24:32.498Z,9.03
2018-06-21T17:27:00.734Z,8.47
2018-06-21T17:29:29.023Z,7.60
2018-06-21T17:31:57.298Z,7.47
2018-06-21T17:34:25.568Z,7.07
2018-06-21T17:36:53.817Z,7.20
2018-06-21T17:39:22.052Z,7.00
2018-06-21T17:41:50.259Z,7.33
2018-06-21T17:44:18.531Z,6.87
2018-06-21T17:46:46.812Z,7.57
2018-06-21T17:49:15.007Z,7.40
2018-06-21T17:51:43.293Z,7.20
2018-06-21T17:54:11.597Z,6.80
2018-06-21T17:56:40.691Z,6.10
2018-06-21T17:59:09.160Z,6.63
2018-06-21T18:01:37.370Z,6.67
2018-06-21T18:04:05.656Z,6.67
2018-06-21T18:06:33.867Z,6.80
2018-06-21T18:09:02.143Z,6.87
2018-06-21T18:11:30.451Z,6.50
2018-06-21T18:13:58.727Z,6.27
2018-06-21T18:16:26.999Z,5.63
2018-06-21T18:18:55.490Z,5.73
2018-06-21T18:21:23.799Z,5.97
2018-06-21T18:23:52.086Z,5.17
2018-06-21T18:26:20.366Z,6.07
2018-06-21T18:28:48.653Z,6.10
2018-06-21T18:31:16.959Z,6.73
2018-06-21T18:33:45.274Z,7.33
2018-06-21T18:36:13.539Z,6.20
2018-06-21T18:38:41.873Z,6.93
2018-06-21T18:41:10.150Z,6.20
2018-06-21T18:43:38.422Z,5.80
2018-06-21T18:46:06.695Z,6.10
2018-06-21T18:48:34.979Z,6.40
2018-06-21T18:51:03.255Z,6.00
2018-06-21T18:53:31.559Z,6.23
2018-06-21T18:55:59.826Z,6.80
2018-06-21T18:58:28.121Z,6.40
2018-06-21T19:00:56.421Z,5.40
2018-06-21T19:03:24.714Z,6.00
2018-06-21T19:05:53.058Z,6.23
2018-06-21T19:08:26.502Z,5.30
2018-06-21T19:11:00.082Z,5.57
2018-06-21T19:13:28.343Z,5.40
2018-06-21T19:15:56.587Z,8.60
2018-06-21T19:18:24.878Z,6.20
2018-06-21T19:20:53.171Z,5.50
2018-06-21T19:23:21.527Z,6.40
2018-06-21T19:25:49.743Z,5.43
2018-06-21T19:28:18.039Z,5.77
2018-06-21T19:30:46.319Z,6.67
2018-06-21T19:33:14.628Z,5.23
2018-06-21T19:35:42.897Z,4.97
2018-06-21T19:38:11.211Z,5.30
2018-06-21T19:40:39.407Z,5.37
2018-06-21T19:43:07.742Z,4.30
2018-06-21T19:45:35.950Z,5.03
2018-06-21T19:48:04.254Z,4.50
2018-06-21T19:50:32.565Z,5.30
2018-06-21T19:53:00.832Z,5.60
2018-06-21T19:55:29.124Z,5.20
2018-06-21T19:57:57.429Z,5.50
2018-06-21T20:00:25.708Z,4.70
2018-06-21T20:02:58.906Z,4.60
2018-06-21T20:05:27.448Z,5.03
2018-06-21T20:07:55.974Z,4.40
2018-06-21T20:10:24.199Z,5.00
2018-06-21T20:12:52.665Z,4.23
2018-06-21T20:15:20.778Z,4.90
2018-06-21T20:17:49.030Z,5.10
2018-06-21T20:20:22.589Z,5.37
2018-06-21T20:22:51.862Z,5.20
2018-06-21T20:25:20.159Z,5.00
2018-06-21T20:27:48.456Z,4.70
2018-06-21T20:30:17.365Z,5.60
2018-06-21T20:32:45.639Z,5.07
2018-06-21T20:35:13.922Z,4.50
2018-06-21T20:37:42.218Z,5.07
2018-06-21T20:40:10.506Z,4.70
2018-06-21T20:42:38.808Z,5.30
2018-06-21T20:45:07.070Z,4.57
2018-06-21T20:47:35.242Z,5.60
2018-06-21T20:50:03.486Z,4.83
2018-06-21T20:52:31.754Z,4.50
2018-06-21T20:55:00.654Z,4.80
2018-06-21T20:57:29.730Z,4.80
2018-06-21T20:59:58.222Z,4.47
2018-06-21T21:02:26.518Z,6.00
2018-06-21T21:05:10.882Z,5.30
2018-06-21T21:07:39.225Z,5.10
2018-06-21T21:10:08.583Z,5.30
2018-06-21T21:12:36.874Z,4.97
2018-06-21T21:15:06.503Z,5.10
2018-06-21T21:17:35.111Z,5.60
2018-06-21T21:20:04.206Z,4.53
2018-06-21T21:22:32.383Z,5.13
2018-06-21T21:25:00.603Z,5.10
2018-06-21T21:27:28.986Z,4.80
2018-06-21T21:29:57.364Z,5.10
2018-06-21T21:32:26.215Z,5.10
2018-06-21T21:34:55.458Z,5.10
2018-06-21T21:37:23.754Z,7.43
2018-06-21T21:39:56.620Z,5.03
2018-06-21T21:42:25.094Z,5.07
2018-06-21T21:44:53.415Z,5.73
2018-06-21T21:47:21.635Z,4.10
2018-06-21T21:49:49.844Z,4.67
2018-06-21T21:52:18.118Z,5.07
2018-06-21T21:54:46.428Z,5.93
2018-06-21T21:57:14.703Z,5.00
2018-06-21T21:59:43.057Z,5.33
2018-06-21T22:02:11.280Z,5.03
2018-06-21T22:04:39.762Z,4.77
2018-06-21T22:07:08.097Z,5.13
2018-06-21T22:09:36.339Z,4.70
2018-06-21T22:12:04.604Z,4.73
2018-06-21T22:14:32.719Z,6.73
2018-06-21T22:17:00.999Z,5.27
2018-06-21T22:19:29.263Z,4.70
2018-06-21T22:21:57.571Z,4.80
2018-06-21T22:24:26.055Z,5.90
2018-06-21T22:26:54.381Z,6.73
2018-06-21T22:29:22.655Z,4.57
2018-06-21T22:31:51.143Z,5.50
2018-06-21T22:34:19.503Z,5.30
2018-06-21T22:36:48.019Z,4.90
2018-06-21T22:39:16.135Z,5.33
2018-06-21T22:41:44.919Z,5.00
2018-06-21T22:44:13.705Z,4.67
2018-06-21T22:46:42.085Z,4.73
2018-06-21T22:49:10.593Z,5.93
2018-06-21T22:51:38.793Z,6.33
2018-06-21T22:54:07.670Z,4.60
2018-06-21T22:56:35.910Z,5.07
2018-06-21T22:59:04.166Z,5.40
2018-06-21T23:01:32.462Z,4.73
2018-06-21T23:04:00.766Z,5.17
2018-06-21T23:06:29.071Z,4.80
2018-06-21T23:08:57.340Z,5.20
2018-06-21T23:11:25.621Z,5.27
2018-06-21T23:13:53.938Z,5.60
2018-06-21T23:16:22.194Z,5.83
2018-06-21T23:19:01.582Z,4.93
2018-06-21T23:21:29.822Z,4.83
2018-06-21T23:23:58.051Z,5.07
2018-06-21T23:26:26.323Z,5.43
2018-06-21T23:28:54.594Z,5.57
2018-06-21T23:31:22.894Z,5.10
2018-06-21T23:33:51.239Z,5.30
2018-06-21T23:36:19.451Z,5.80
2018-06-21T23:38:47.663Z,5.27
2018-06-21T23:41:15.943Z,5.00
2018-06-21T23:43:44.258Z,5.50
2018-06-21T23:46:12.519Z,5.70
2018-06-21T23:48:40.812Z,6.30
2018-06-21T23:51:09.105Z,5.40
2018-06-21T23:53:37.374Z,5.03
2018-06-21T23:56:05.619Z,5.70
2018-06-21T23:58:33.838Z,5.97
